createdAt,value
2018-03-22T00:01:43.755Z,100987.71
2018-03-22T00:04:11.203Z,100983.39
2018-03-22T00:06:39.495Z,100979.95
2018-03-22T00:09:06.982Z,100976.64
2018-03-22T00:11:34.442Z,100974.45
2018-03-22T00:14:02.131Z,100961.73
2018-03-22T00:16:29.568Z,100967.38
2018-03-22T00:18:57.053Z,100973.30
2018-03-22T00:21:24.999Z,100968.48
2018-03-22T00:23:52.521Z,100973.30
2018-03-22T00:26:19.985Z,100962.95
2018-03-22T00:28:47.433Z,100971.74
2018-03-22T00:31:14.888Z,100961.98
2018-03-22T00:33:42.360Z,100962.08
2018-03-22T00:36:10.603Z,100958.37
2018-03-22T00:38:38.093Z,100952.20
2018-03-22T00:41:05.540Z,100945.55
2018-03-22T00:43:33.012Z,100940.03
2018-03-22T00:46:00.472Z,100929.16
2018-03-22T00:48:27.983Z,100927.84
2018-03-22T00:50:55.423Z,100920.09
2018-03-22T00:53:23.003Z,100918.37
2018-03-22T00:55:50.488Z,100914.55
2018-03-22T00:58:36.665Z,100915.25
2018-03-22T01:01:04.141Z,100904.87
2018-03-22T01:03:31.609Z,100901.98
2018-03-22T01:05:59.061Z,100903.88
2018-03-22T01:08:26.502Z,100906.31
2018-03-22T01:10:53.955Z,100900.19
2018-03-22T01:13:21.444Z,100890.12
2018-03-22T01:15:48.918Z,100887.41
2018-03-22T01:18:16.370Z,100885.60
2018-03-22T01:20:43.830Z,100878.84
2018-03-22T01:23:11.310Z,100877.03
2018-03-22T01:25:38.776Z,100876.60
2018-03-22T01:28:06.249Z,100867.55
2018-03-22T01:30:44.287Z,100871.45
2018-03-22T01:33:11.772Z,100863.19
2018-03-22T01:35:39.244Z,100866.04
2018-03-22T01:38:06.701Z,100862.62
2018-03-22T01:40:34.137Z,100854.69
2018-03-22T01:43:01.687Z,100851.95
2018-03-22T01:45:29.143Z,100852.96
2018-03-22T01:47:56.593Z,100844.11
2018-03-22T01:50:24.034Z,100843.89
2018-03-22T01:53:03.299Z,100835.20
2018-03-22T01:55:31.569Z,100840.23
2018-03-22T01:57:59.042Z,100837.61
2018-03-22T02:00:26.529Z,100832.37
2018-03-22T02:02:53.997Z,100822.40
2018-03-22T02:05:21.469Z,100822.11
2018-03-22T02:07:49.195Z,100811.72
2018-03-22T02:10:16.638Z,100811.30
2018-03-22T02:12:44.092Z,100805.36
2018-03-22T02:15:11.596Z,100797.30
2018-03-22T02:17:39.122Z,100790.89
2018-03-22T02:20:06.607Z,100791.25
2018-03-22T02:22:34.072Z,100789.06
2018-03-22T02:25:01.525Z,100781.81
2018-03-22T02:27:28.980Z,100781.09
2018-03-22T02:29:56.452Z,100776.58
2018-03-22T02:32:23.943Z,100770.70
2018-03-22T02:34:51.433Z,100764.79
2018-03-22T02:37:18.907Z,100759.02
2018-03-22T02:39:46.373Z,100755.61
2018-03-22T02:42:14.559Z,100754.31
2018-03-22T02:44:42.066Z,100745.64
2018-03-22T02:47:09.517Z,100747.25
2018-03-22T02:49:36.972Z,100743.84
2018-03-22T02:52:04.415Z,100736.30
2018-03-22T02:54:31.867Z,100733.28
2018-03-22T02:56:59.328Z,100729.33
2018-03-22T02:59:26.956Z,100721.28
2018-03-22T03:01:54.407Z,100719.89
2018-03-22T03:04:21.860Z,100715.86
2018-03-22T03:06:49.369Z,100708.88
2018-03-22T03:09:16.882Z,100701.30
2018-03-22T03:11:44.332Z,100709.32
2018-03-22T03:14:11.820Z,100695.03
2018-03-22T03:16:39.272Z,100699.36
2018-03-22T03:19:06.791Z,100693.61
2018-03-22T03:21:34.264Z,100694.70
2018-03-22T03:24:01.704Z,100680.19
2018-03-22T03:26:29.186Z,100680.79
2018-03-22T03:28:56.659Z,100674.33
2018-03-22T03:31:24.109Z,100670.91
2018-03-22T03:33:51.628Z,100667.28
2018-03-22T03:36:19.086Z,100657.33
2018-03-22T03:38:46.547Z,100646.14
2018-03-22T03:41:13.998Z,100640.03
2018-03-22T03:43:41.446Z,100638.23
2018-03-22T03:46:08.994Z,100633.33
2018-03-22T03:48:36.425Z,100631.31
2018-03-22T03:51:03.920Z,100625.85
2018-03-22T03:53:31.370Z,100618.73
2018-03-22T03:55:58.824Z,100609.90
2018-03-22T03:58:26.282Z,100611.09
2018-03-22T04:00:53.740Z,100605.83
2018-03-22T04:03:21.220Z,100605.83
2018-03-22T04:05:48.650Z,100597.64
2018-03-22T04:08:16.092Z,100597.16
2018-03-22T04:10:43.589Z,100589.82
2018-03-22T04:13:11.048Z,100586.91
2018-03-22T04:15:38.526Z,100591.52
2018-03-22T04:18:05.986Z,100583.66
2018-03-22T04:20:33.432Z,100580.06
2018-03-22T04:23:00.892Z,100579.34
2018-03-22T04:25:28.360Z,100573.52
2018-03-22T04:27:55.871Z,100578.00
2018-03-22T04:30:23.367Z,100576.70
2018-03-22T04:32:50.807Z,100572.58
2018-03-22T04:35:18.301Z,100570.83
2018-03-22T04:37:45.779Z,100566.27
2018-03-22T04:40:13.240Z,100557.81
2018-03-22T04:42:41.168Z,100555.53
2018-03-22T04:45:09.339Z,100551.08
2018-03-22T04:47:36.826Z,100542.33
2018-03-22T04:50:04.286Z,100537.47
2018-03-22T04:52:31.741Z,100546.33
2018-03-22T04:54:59.203Z,100529.30
2018-03-22T04:57:26.651Z,100527.28
2018-03-22T04:59:54.169Z,100525.08
2018-03-22T05:02:21.631Z,100520.06
2018-03-22T05:04:49.066Z,100513.97
2018-03-22T05:07:16.641Z,100510.00
2018-03-22T05:09:44.081Z,100506.08
2018-03-22T05:12:11.580Z,100515.80
2018-03-22T05:14:39.089Z,100506.11
2018-03-22T05:17:06.543Z,100498.67
2018-03-22T05:19:34.072Z,100499.16
2018-03-22T05:22:01.532Z,100496.20
2018-03-22T05:24:29.029Z,100492.05
2018-03-22T05:26:56.532Z,100492.08
2018-03-22T05:29:24.007Z,100490.06
2018-03-22T05:31:51.535Z,100484.48
2018-03-22T05:34:19.007Z,100480.86
2018-03-22T05:36:46.481Z,100476.52
2018-03-22T05:39:14.015Z,100470.75
2018-03-22T05:41:41.503Z,100470.34
2018-03-22T05:44:09.055Z,100467.27
2018-03-22T05:46:36.508Z,100462.62
2018-03-22T05:49:04.081Z,100459.70
2018-03-22T05:51:31.711Z,100457.87
2018-03-22T05:53:59.172Z,100459.94
2018-03-22T05:56:27.467Z,100457.98
2018-03-22T05:58:54.922Z,100456.49
2018-03-22T06:01:22.397Z,100455.82
2018-03-22T06:03:49.863Z,100457.13
2018-03-22T06:06:17.368Z,100450.24
2018-03-22T06:08:45.277Z,100444.82
2018-03-22T06:11:12.755Z,100447.13
2018-03-22T06:13:40.309Z,100444.40
2018-03-22T06:16:07.795Z,100433.52
2018-03-22T06:18:35.291Z,100427.60
2018-03-22T06:21:02.769Z,100423.63
2018-03-22T06:23:30.233Z,100419.47
2018-03-22T06:25:57.695Z,100408.95
2018-03-22T06:28:25.205Z,100412.61
2018-03-22T06:30:52.725Z,100406.53
2018-03-22T06:33:20.265Z,100404.75
2018-03-22T06:35:47.727Z,100408.86
2018-03-22T06:38:16.921Z,100400.05
2018-03-22T06:40:45.353Z,100397.03
2018-03-22T06:43:12.809Z,100395.00
2018-03-22T06:45:40.298Z,100381.67
2018-03-22T06:48:08.021Z,100390.31
2018-03-22T06:50:36.509Z,100385.32
2018-03-22T06:53:03.996Z,100379.83
2018-03-22T06:55:31.527Z,100376.11
2018-03-22T06:57:59.303Z,100359.16
2018-03-22T07:00:26.809Z,100358.03
2018-03-22T07:02:54.361Z,100350.81
2018-03-22T07:05:21.861Z,100354.29
2018-03-22T07:07:49.352Z,100351.78
2018-03-22T07:10:16.803Z,100351.06
2018-03-22T07:12:45.141Z,100342.30
2018-03-22T07:15:12.609Z,100331.75
2018-03-22T07:17:40.100Z,100334.31
2018-03-22T07:20:07.659Z,100323.71
2018-03-22T07:22:35.115Z,100321.81
2018-03-22T07:25:02.573Z,100317.62
2018-03-22T07:27:41.599Z,100316.97
2018-03-22T07:30:09.093Z,100301.52
2018-03-22T07:32:37.490Z,100300.20
2018-03-22T07:35:05.043Z,100300.31
2018-03-22T07:37:33.615Z,100290.69
2018-03-22T07:40:01.075Z,100297.91
2018-03-22T07:42:28.720Z,100293.18
2018-03-22T07:44:56.186Z,100291.16
2018-03-22T07:47:23.666Z,100278.51
2018-03-22T07:49:51.210Z,100283.23
2018-03-22T07:52:18.695Z,100276.30
2018-03-22T07:54:46.225Z,100265.27
2018-03-22T07:57:13.744Z,100261.11
2018-03-22T07:59:41.263Z,100251.98
2018-03-22T08:02:08.758Z,100255.06
2018-03-22T08:04:36.244Z,100246.09
2018-03-22T08:07:03.778Z,100238.94
2018-03-22T08:09:31.567Z,100243.73
2018-03-22T08:11:59.094Z,100243.86
2018-03-22T08:14:26.592Z,100247.67
2018-03-22T08:16:54.217Z,100232.42
2018-03-22T08:19:21.736Z,100230.25
2018-03-22T08:21:50.659Z,100226.31
2018-03-22T08:24:18.243Z,100223.95
2018-03-22T08:26:45.748Z,100225.36
2018-03-22T08:29:13.240Z,100238.34
2018-03-22T08:31:40.794Z,100229.06
2018-03-22T08:34:08.364Z,100220.78
2018-03-22T08:36:35.844Z,100229.02
2018-03-22T08:39:03.447Z,100232.26
2018-03-22T08:41:30.960Z,100213.48
2018-03-22T08:43:58.416Z,100212.06
2018-03-22T08:46:25.908Z,100209.01
2018-03-22T08:48:53.454Z,100201.91
2018-03-22T08:51:20.986Z,100201.99
2018-03-22T08:53:49.252Z,100200.66
2018-03-22T08:56:16.738Z,100195.22
2018-03-22T08:58:44.235Z,100198.42
2018-03-22T09:01:11.693Z,100193.58
2018-03-22T09:03:39.176Z,100183.63
2018-03-22T09:06:06.786Z,100180.77
2018-03-22T09:08:34.336Z,100183.22
2018-03-22T09:11:01.876Z,100175.17
2018-03-22T09:13:29.416Z,100172.89
2018-03-22T09:15:56.884Z,100169.86
2018-03-22T09:18:24.550Z,100159.95
2018-03-22T09:20:52.053Z,100161.48
2018-03-22T09:23:19.566Z,100159.35
2018-03-22T09:25:47.484Z,100164.16
2018-03-22T09:28:15.000Z,100160.99
2018-03-22T09:30:42.546Z,100155.23
2018-03-22T09:33:10.008Z,100150.34
2018-03-22T09:35:37.600Z,100150.62
2018-03-22T09:38:05.118Z,100153.01
2018-03-22T09:40:32.590Z,100153.46
2018-03-22T09:43:00.087Z,100144.34
2018-03-22T09:45:29.145Z,100142.52
2018-03-22T09:47:57.152Z,100149.24
2018-03-22T09:50:24.676Z,100139.60
2018-03-22T09:52:52.266Z,100136.36
2018-03-22T09:55:20.914Z,100130.16
2018-03-22T09:57:48.394Z,100126.66
2018-03-22T10:00:15.842Z,100124.50
2018-03-22T10:02:43.389Z,100125.73
2018-03-22T10:05:10.931Z,100118.40
2018-03-22T10:07:38.552Z,100121.14
2018-03-22T10:10:06.081Z,100120.51
2018-03-22T10:12:33.524Z,100121.04
2018-03-22T10:15:00.978Z,100109.38
2018-03-22T10:17:28.448Z,100107.26
2018-03-22T10:19:56.918Z,100100.53
2018-03-22T10:22:24.444Z,100102.52
2018-03-22T10:24:51.939Z,100094.79
2018-03-22T10:27:19.396Z,100082.80
2018-03-22T10:29:46.903Z,100081.36
2018-03-22T10:32:14.398Z,100086.99
2018-03-22T10:34:41.884Z,100076.59
2018-03-22T10:37:09.422Z,100074.92
2018-03-22T10:39:37.004Z,100071.81
2018-03-22T10:42:04.526Z,100062.39
2018-03-22T10:44:32.206Z,100061.09
2018-03-22T10:46:59.728Z,100065.97
2018-03-22T10:49:27.246Z,100063.71
2018-03-22T10:51:54.702Z,100054.61
2018-03-22T10:54:22.342Z,100055.44
2018-03-22T10:56:50.818Z,100051.83
2018-03-22T10:59:18.421Z,100050.39
2018-03-22T11:01:51.620Z,100049.31
2018-03-22T11:04:20.926Z,100044.52
2018-03-22T11:06:48.622Z,100038.33
2018-03-22T11:09:21.216Z,100041.08
2018-03-22T11:11:48.743Z,100044.61
2018-03-22T11:14:16.294Z,100038.53
2018-03-22T11:16:44.904Z,100038.57
2018-03-22T11:19:12.521Z,100039.52
2018-03-22T11:21:40.065Z,100029.55
2018-03-22T11:24:07.622Z,100025.11
2018-03-22T11:26:35.170Z,100024.21
2018-03-22T11:29:02.704Z,100017.73
2018-03-22T11:31:30.250Z,100024.46
2018-03-22T11:33:57.734Z,100024.50
2018-03-22T11:36:25.375Z,100015.91
2018-03-22T11:38:52.900Z,100010.33
2018-03-22T11:41:20.526Z,100012.53
2018-03-22T11:43:47.974Z,100006.35
2018-03-22T11:46:15.555Z,100000.97
2018-03-22T11:48:43.083Z,99992.20
2018-03-22T11:51:10.568Z,99994.50
2018-03-22T11:53:38.024Z,99999.83
2018-03-22T11:56:05.902Z,99996.95
2018-03-22T11:58:33.420Z,99989.21
2018-03-22T12:01:00.904Z,99997.11
2018-03-22T12:03:28.386Z,99997.08
2018-03-22T12:05:55.940Z,99987.55
2018-03-22T12:08:24.408Z,99981.81
2018-03-22T12:10:51.972Z,99984.72
2018-03-22T12:13:19.462Z,99987.80
2018-03-22T12:15:46.966Z,99979.60
2018-03-22T12:18:14.500Z,99977.06
2018-03-22T12:20:41.989Z,99971.82
2018-03-22T12:23:09.516Z,99975.50
2018-03-22T12:25:37.023Z,99976.00
2018-03-22T12:28:05.108Z,99967.93
2018-03-22T12:30:32.620Z,99969.36
2018-03-22T12:33:00.115Z,99962.31
2018-03-22T12:35:27.610Z,99962.22
2018-03-22T12:37:55.121Z,99963.53
2018-03-22T12:40:22.698Z,99968.25
2018-03-22T12:42:50.176Z,99960.01
2018-03-22T12:45:17.912Z,99962.39
2018-03-22T12:47:45.360Z,99951.98
2018-03-22T12:50:12.879Z,99958.58
2018-03-22T12:52:40.372Z,99954.27
2018-03-22T12:55:07.896Z,99955.79
2018-03-22T12:57:35.410Z,99952.84
2018-03-22T13:00:02.924Z,99952.22
2018-03-22T13:02:30.428Z,99953.16
2018-03-22T13:04:57.940Z,99941.59
2018-03-22T13:07:25.409Z,99941.84
2018-03-22T13:09:52.890Z,99949.21
2018-03-22T13:12:20.378Z,99941.13
2018-03-22T13:14:48.121Z,99939.97
2018-03-22T13:17:15.593Z,99932.67
2018-03-22T13:19:43.054Z,99932.25
2018-03-22T13:22:10.569Z,99931.46
2018-03-22T13:24:38.069Z,99928.96
2018-03-22T13:27:05.558Z,99930.23
2018-03-22T13:29:42.639Z,99933.51
2018-03-22T13:32:10.372Z,99926.63
2018-03-22T13:34:37.843Z,99924.27
2018-03-22T13:37:05.955Z,99916.37
2018-03-22T13:39:33.493Z,99921.33
2018-03-22T13:42:00.991Z,99918.96
2018-03-22T13:44:28.531Z,99921.98
2018-03-22T13:46:56.015Z,99921.12
2018-03-22T13:49:24.403Z,99919.22
2018-03-22T13:51:52.048Z,99915.97
2018-03-22T13:54:20.123Z,99909.22
2018-03-22T13:56:47.635Z,99914.99
2018-03-22T13:59:15.322Z,99915.04
2018-03-22T14:01:42.923Z,99908.31
2018-03-22T14:04:11.035Z,99916.23
2018-03-22T14:06:38.533Z,99902.96
2018-03-22T14:09:07.023Z,99895.55
2018-03-22T14:11:35.417Z,99906.08
2018-03-22T14:14:03.177Z,99893.02
2018-03-22T14:16:30.823Z,99892.19
2018-03-22T14:18:58.319Z,99886.98
2018-03-22T14:21:25.931Z,99885.21
2018-03-22T14:23:53.521Z,99883.73
2018-03-22T14:26:21.344Z,99878.31
2018-03-22T14:28:48.887Z,99874.83
2018-03-22T14:31:16.352Z,99879.73
2018-03-22T14:33:43.866Z,99878.87
2018-03-22T14:36:11.321Z,99874.03
2018-03-22T14:38:38.829Z,99868.62
2018-03-22T14:41:06.335Z,99869.16
2018-03-22T14:43:33.838Z,99857.67
2018-03-22T14:46:01.363Z,99863.16
2018-03-22T14:48:28.849Z,99859.36
2018-03-22T14:50:56.353Z,99855.17
2018-03-22T14:53:23.840Z,99853.82
2018-03-22T14:55:51.397Z,99853.45
2018-03-22T14:58:18.929Z,99851.77
2018-03-22T15:00:46.441Z,99847.30
2018-03-22T15:03:13.915Z,99852.17
2018-03-22T15:05:41.491Z,99846.80
2018-03-22T15:08:09.015Z,99841.80
2018-03-22T15:10:36.587Z,99842.33
2018-03-22T15:13:04.069Z,99845.80
2018-03-22T15:15:32.115Z,99847.47
2018-03-22T15:17:59.698Z,99851.09
2018-03-22T15:20:27.219Z,99849.62
2018-03-22T15:22:54.775Z,99849.45
2018-03-22T15:25:22.263Z,99850.27
2018-03-22T15:27:49.765Z,99854.33
2018-03-22T15:30:17.491Z,99851.70
2018-03-22T15:32:44.956Z,99853.99
2018-03-22T15:35:12.466Z,99855.15
2018-03-22T15:37:41.006Z,99860.27
2018-03-22T15:40:08.473Z,99854.33
2018-03-22T15:42:35.963Z,99845.11
2018-03-22T15:45:03.461Z,99846.55
2018-03-22T15:47:30.965Z,99854.17
2018-03-22T15:49:58.471Z,99848.39
2018-03-22T15:52:25.992Z,99856.42
2018-03-22T15:54:53.467Z,99859.42
2018-03-22T15:57:20.939Z,99856.02
2018-03-22T15:59:48.526Z,99851.46
2018-03-22T16:02:16.013Z,99857.77
2018-03-22T16:04:43.501Z,99856.18
2018-03-22T16:07:11.190Z,99858.02
2018-03-22T16:09:38.692Z,99862.37
2018-03-22T16:12:06.498Z,99859.49
2018-03-22T16:14:34.046Z,99860.47
2018-03-22T16:17:01.598Z,99858.66
2018-03-22T16:19:29.113Z,99867.69
2018-03-22T16:21:56.584Z,99858.00
2018-03-22T16:24:24.102Z,99855.50
2018-03-22T16:26:51.613Z,99854.31
2018-03-22T16:29:19.102Z,99852.75
2018-03-22T16:31:46.592Z,99853.25
2018-03-22T16:34:14.095Z,99854.81
2018-03-22T16:36:42.518Z,99855.22
2018-03-22T16:39:09.995Z,99846.78
2018-03-22T16:41:37.490Z,99843.00
2018-03-22T16:44:04.983Z,99842.09
2018-03-22T16:46:32.460Z,99847.80
2018-03-22T16:49:00.003Z,99850.31
2018-03-22T16:51:27.541Z,99850.19
2018-03-22T16:53:55.037Z,99838.94
2018-03-22T16:56:22.603Z,99851.88
2018-03-22T16:58:50.208Z,99852.37
2018-03-22T17:01:17.711Z,99851.02
2018-03-22T17:03:45.259Z,99853.52
2018-03-22T17:06:12.773Z,99851.92
2018-03-22T17:08:40.376Z,99855.83
2018-03-22T17:11:07.935Z,99853.05
2018-03-22T17:13:35.694Z,99852.92
2018-03-22T17:16:03.275Z,99847.63
2018-03-22T17:18:30.746Z,99851.66
2018-03-22T17:20:58.293Z,99847.19
2018-03-22T17:23:25.767Z,99849.62
2018-03-22T17:25:53.250Z,99861.95
2018-03-22T17:28:20.704Z,99851.30
2018-03-22T17:30:48.191Z,99852.90
2018-03-22T17:33:15.709Z,99853.89
2018-03-22T17:35:43.220Z,99855.16
2018-03-22T17:38:10.726Z,99852.29
2018-03-22T17:40:38.219Z,99856.84
2018-03-22T17:43:05.730Z,99853.60
2018-03-22T17:45:33.212Z,99853.20
2018-03-22T17:48:00.743Z,99847.50
2018-03-22T17:50:28.669Z,99847.26
2018-03-22T17:52:56.124Z,99845.81
2018-03-22T17:55:23.617Z,99849.51
2018-03-22T17:57:51.159Z,99846.93
2018-03-22T18:00:19.231Z,99848.03
2018-03-22T18:02:46.703Z,99848.94
2018-03-22T18:05:14.244Z,99843.28
2018-03-22T18:07:41.709Z,99844.34
2018-03-22T18:10:09.207Z,99838.98
2018-03-22T18:12:36.908Z,99844.26
2018-03-22T18:15:04.423Z,99846.36
2018-03-22T18:17:31.909Z,99842.73
2018-03-22T18:19:59.389Z,99842.86
2018-03-22T18:22:26.886Z,99840.36
2018-03-22T18:24:54.432Z,99847.95
2018-03-22T18:27:22.031Z,99851.81
2018-03-22T18:29:49.571Z,99850.41
2018-03-22T18:32:17.103Z,99851.81
2018-03-22T18:34:44.606Z,99852.95
2018-03-22T18:37:12.134Z,99851.77
2018-03-22T18:39:39.579Z,99854.44
2018-03-22T18:42:07.044Z,99854.72
2018-03-22T18:44:34.508Z,99852.91
2018-03-22T18:47:02.113Z,99851.84
2018-03-22T18:49:29.587Z,99855.38
2018-03-22T18:51:57.089Z,99853.41
2018-03-22T18:54:24.526Z,99852.55
2018-03-22T18:56:52.008Z,99847.43
2018-03-22T18:59:20.537Z,99846.72
2018-03-22T19:01:48.035Z,99842.26
2018-03-22T19:04:15.583Z,99837.86
2018-03-22T19:06:43.056Z,99843.61
2018-03-22T19:09:10.544Z,99838.02
2018-03-22T19:11:38.047Z,99838.64
2018-03-22T19:14:05.550Z,99843.61
2018-03-22T19:16:33.060Z,99843.27
2018-03-22T19:19:00.520Z,99836.96
2018-03-22T19:21:28.089Z,99838.02
2018-03-22T19:23:55.651Z,99837.33
2018-03-22T19:26:23.199Z,99839.30
2018-03-22T19:28:50.781Z,99836.18
2018-03-22T19:31:18.257Z,99843.36
2018-03-22T19:33:46.752Z,99832.97
2018-03-22T19:36:14.233Z,99832.45
2018-03-22T19:38:41.709Z,99834.60
2018-03-22T19:41:09.286Z,99833.79
2018-03-22T19:43:36.809Z,99836.88
2018-03-22T19:46:04.273Z,99840.19
2018-03-22T19:48:31.738Z,99839.34
2018-03-22T19:50:59.269Z,99835.87
2018-03-22T19:53:26.777Z,99838.30
2018-03-22T19:55:54.332Z,99830.84
2018-03-22T19:58:22.792Z,99830.50
2018-03-22T20:00:50.369Z,99823.96
2018-03-22T20:03:17.879Z,99826.30
2018-03-22T20:05:45.520Z,99823.06
2018-03-22T20:08:13.052Z,99816.56
2018-03-22T20:10:40.594Z,99820.78
2018-03-22T20:13:08.056Z,99817.41
2018-03-22T20:15:35.575Z,99819.97
2018-03-22T20:18:03.190Z,99822.56
2018-03-22T20:20:30.653Z,99818.06
2018-03-22T20:22:58.316Z,99822.12
2018-03-22T20:25:25.945Z,99829.95
2018-03-22T20:27:53.532Z,99827.45
2018-03-22T20:30:20.983Z,99822.45
2018-03-22T20:32:48.884Z,99828.89
2018-03-22T20:35:16.337Z,99821.14
2018-03-22T20:37:43.798Z,99814.58
2018-03-22T20:40:11.360Z,99824.55
2018-03-22T20:42:38.900Z,99816.84
2018-03-22T20:45:06.682Z,99818.73
2018-03-22T20:47:34.214Z,99815.33
2018-03-22T20:50:01.694Z,99824.52
2018-03-22T20:52:29.188Z,99826.57
2018-03-22T20:54:56.706Z,99825.05
2018-03-22T20:57:24.882Z,99821.36
2018-03-22T20:59:52.430Z,99825.27
2018-03-22T21:02:19.906Z,99820.95
2018-03-22T21:04:47.425Z,99821.73
2018-03-22T21:07:14.961Z,99823.20
2018-03-22T21:09:42.462Z,99812.02
2018-03-22T21:12:09.940Z,99813.48
2018-03-22T21:14:37.416Z,99806.05
2018-03-22T21:17:05.787Z,99815.16
2018-03-22T21:19:33.309Z,99812.25
2018-03-22T21:22:01.175Z,99805.84
2018-03-22T21:24:28.676Z,99808.75
2018-03-22T21:26:56.302Z,99809.06
2018-03-22T21:29:28.760Z,99809.59
2018-03-22T21:31:56.416Z,99814.06
2018-03-22T21:34:24.610Z,99808.81
2018-03-22T21:36:52.226Z,99806.59
2018-03-22T21:39:21.507Z,99813.53
2018-03-22T21:44:41.360Z,99814.38
2018-03-22T21:49:58.903Z,99810.09
2018-03-22T21:52:38.454Z,99808.13
2018-03-22T21:55:05.937Z,99802.25
2018-03-22T21:57:33.384Z,99799.07
2018-03-22T22:00:00.869Z,99798.16
2018-03-22T22:02:28.333Z,99800.16
2018-03-22T22:04:56.209Z,99803.98
2018-03-22T22:07:23.775Z,99801.98
2018-03-22T22:09:51.341Z,99806.31
2018-03-22T22:12:18.861Z,99797.16
2018-03-22T22:14:46.350Z,99805.44
2018-03-22T22:17:13.822Z,99806.35
2018-03-22T22:19:41.367Z,99806.19
2018-03-22T22:22:08.895Z,99802.28
2018-03-22T22:24:36.453Z,99803.87
2018-03-22T22:27:03.976Z,99798.75
2018-03-22T22:29:31.459Z,99801.50
2018-03-22T22:31:59.005Z,99792.41
2018-03-22T22:34:26.490Z,99791.01
2018-03-22T22:36:53.986Z,99785.88
2018-03-22T22:39:21.505Z,99781.45
2018-03-22T22:41:49.356Z,99770.91
2018-03-22T22:44:16.888Z,99770.79
2018-03-22T22:46:44.333Z,99774.06
2018-03-22T22:49:11.817Z,99774.72
2018-03-22T22:51:39.285Z,99768.66
2018-03-22T22:54:06.835Z,99769.45
2018-03-22T22:56:34.422Z,99771.01
2018-03-22T22:59:01.903Z,99764.33
2018-03-22T23:01:30.238Z,99765.79
2018-03-22T23:03:57.696Z,99756.32
2018-03-22T23:06:25.224Z,99759.85
2018-03-22T23:08:53.286Z,99761.04
2018-03-22T23:11:20.747Z,99756.63
2018-03-22T23:13:48.223Z,99749.94
2018-03-22T23:16:15.665Z,99751.66
2018-03-22T23:18:43.148Z,99753.47
2018-03-22T23:21:10.619Z,99758.07
2018-03-22T23:23:38.057Z,99746.38
2018-03-22T23:26:05.598Z,99749.94
2018-03-22T23:28:33.067Z,99741.38
2018-03-22T23:31:00.577Z,99734.32
2018-03-22T23:33:28.028Z,99736.84
2018-03-22T23:35:55.551Z,99734.02
2018-03-22T23:38:23.083Z,99725.72
2018-03-22T23:40:50.589Z,99728.08
2018-03-22T23:43:18.063Z,99726.95
2018-03-22T23:45:45.615Z,99725.88
2018-03-22T23:48:13.068Z,99720.85
2018-03-22T23:50:40.556Z,99719.66
2018-03-22T23:53:08.051Z,99721.08
2018-03-22T23:55:35.619Z,99726.27
2018-03-22T23:58:03.101Z,99718.12
